メインページ
METAR-TAF:

METAR-TAF

空港 :

Port Hope, ミシガン州, アメリカ合衆国

緯度: 44-01-19N, 経度: 082-47-35W, 海抜: 179m

現時点の気象観測

当レポートは44分前の05:51(UTC)に作成
無風
気温 -1°C
湿度 93%
気圧 1017 hPa

METAR: KP58 040551Z AUTO 00000KT M01/M02 A3004 RMK AO1 SLP182 T10061022 10044 21006 58007

時間: 02:35 (06:35 UTC)


TAF: 見つかりません

4,000以上の空港の気象観測と天気予報(METAR報とTAF報)

利用可能な観測所は地図上に黄色い丸と赤い丸で示す。

丸の上にカーソルを重ねると観測所名を参照できる。

次にクリックすると気象観測と天気予報を参照できる。

マップの切り替え:黒色「×」印の緑ボタンをクリックして拡大、「-」印の緑ボタンをクリックして縮小、緑色の三角印をクリックして隣りの地図に切り替え


METAR-TAF: